createdAt,value
2024-01-06T00:00:06.825Z,1.10
2024-01-06T00:02:55.864Z,1.17
2024-01-06T00:05:46.269Z,1.20
2024-01-06T00:08:35.060Z,1.23
2024-01-06T00:11:23.939Z,1.30
2024-01-06T00:14:12.786Z,1.20
2024-01-06T00:17:01.697Z,1.13
2024-01-06T00:19:52.739Z,1.20
2024-01-06T00:22:45.259Z,1.23
2024-01-06T00:25:34.199Z,1.20
2024-01-06T00:28:23.028Z,1.10
2024-01-06T00:31:12.248Z,1.20
2024-01-06T00:34:01.277Z,1.00
2024-01-06T00:36:50.208Z,1.20
2024-01-06T00:39:40.562Z,1.23
2024-01-06T00:42:29.468Z,1.53
2024-01-06T00:45:19.111Z,1.23
2024-01-06T00:48:08.524Z,1.37
2024-01-06T00:50:57.649Z,1.17
2024-01-06T00:53:46.402Z,1.00
2024-01-06T00:56:36.651Z,0.90
2024-01-06T00:59:25.450Z,1.10
2024-01-06T01:02:14.248Z,1.10
2024-01-06T01:05:03.294Z,1.00
2024-01-06T01:07:52.310Z,1.13
2024-01-06T01:10:41.077Z,1.30
2024-01-06T01:13:31.345Z,1.70
2024-01-06T01:16:20.222Z,1.50
2024-01-06T01:19:09.417Z,1.50
2024-01-06T01:21:58.364Z,1.23
2024-01-06T01:24:47.390Z,1.30
2024-01-06T01:27:36.493Z,1.47
2024-01-06T01:30:26.905Z,1.50
2024-01-06T01:33:16.092Z,1.40
2024-01-06T01:36:05.159Z,1.33
2024-01-06T01:38:54.056Z,1.00
2024-01-06T01:41:42.865Z,1.30
2024-01-06T01:44:31.719Z,1.03
2024-01-06T01:47:22.789Z,1.10
2024-01-06T01:50:13.066Z,1.20
2024-01-06T01:53:02.487Z,1.27
2024-01-06T01:55:51.480Z,0.80
2024-01-06T01:58:40.463Z,0.83
2024-01-06T02:01:29.572Z,1.10
2024-01-06T02:04:19.798Z,0.93
2024-01-06T02:07:08.603Z,0.90
2024-01-06T02:09:57.493Z,1.00
2024-01-06T02:12:46.412Z,1.00
2024-01-06T02:15:35.811Z,1.10
2024-01-06T02:18:24.733Z,1.00
2024-01-06T02:21:15.653Z,0.83
2024-01-06T02:24:06.178Z,0.90
2024-01-06T02:26:54.994Z,0.90
2024-01-06T02:29:43.909Z,1.10
2024-01-06T02:32:32.806Z,1.00
2024-01-06T02:35:21.722Z,0.90
2024-01-06T02:38:11.094Z,1.00
2024-01-06T02:41:01.436Z,1.20
2024-01-06T02:43:50.315Z,1.30
2024-01-06T02:46:39.235Z,1.20
2024-01-06T02:52:31.003Z,1.13
2024-01-06T02:55:19.747Z,1.50
2024-01-06T02:58:09.999Z,1.30
2024-01-06T03:01:00.473Z,1.40
2024-01-06T03:03:49.536Z,1.40
2024-01-06T03:06:38.453Z,1.47
2024-01-06T03:09:27.465Z,1.30
2024-01-06T03:12:16.549Z,1.60
2024-01-06T03:15:07.824Z,1.57
2024-01-06T03:17:56.851Z,1.23
2024-01-06T03:20:45.788Z,1.30
2024-01-06T03:23:34.794Z,1.43
2024-01-06T03:26:25.270Z,1.30
2024-01-06T03:29:14.257Z,1.23
2024-01-06T03:32:04.541Z,1.40
2024-01-06T03:34:53.501Z,1.30
2024-01-06T03:37:42.397Z,1.40
2024-01-06T03:40:31.225Z,1.20
2024-01-06T03:43:20.066Z,0.90
2024-01-06T03:46:08.955Z,1.10
2024-01-06T03:48:59.331Z,1.20
2024-01-06T03:51:48.374Z,0.80
2024-01-06T03:54:37.215Z,1.00
2024-01-06T03:57:26.225Z,1.23
2024-01-06T04:00:15.558Z,1.13
2024-01-06T04:03:04.453Z,1.30
2024-01-06T04:05:54.962Z,1.20
2024-01-06T04:08:44.041Z,1.37
2024-01-06T04:11:32.849Z,1.50
2024-01-06T04:14:21.681Z,1.27
2024-01-06T04:17:10.555Z,1.10
2024-01-06T04:19:59.530Z,1.17
2024-01-06T04:22:49.816Z,1.20
2024-01-06T04:25:38.668Z,1.37
2024-01-06T04:28:27.462Z,1.37
2024-01-06T04:31:16.386Z,1.40
2024-01-06T04:34:05.604Z,1.40
2024-01-06T04:36:54.803Z,1.37
2024-01-06T04:39:45.123Z,1.50
2024-01-06T04:42:34.052Z,1.67
2024-01-06T04:45:25.269Z,1.60
2024-01-06T04:48:14.551Z,1.30
2024-01-06T04:51:04.520Z,1.90
2024-01-06T04:53:53.332Z,1.50
2024-01-06T04:56:43.584Z,1.70
2024-01-06T04:59:32.487Z,1.80
2024-01-06T05:02:21.534Z,1.90
2024-01-06T05:05:10.496Z,1.70
2024-01-06T05:08:00.366Z,2.00
2024-01-06T05:10:50.200Z,1.53
2024-01-06T05:13:40.879Z,1.80
2024-01-06T05:16:29.999Z,1.67
2024-01-06T05:19:21.559Z,1.63
2024-01-06T05:22:10.767Z,2.00
2024-01-06T05:24:59.628Z,1.97
2024-01-06T05:27:48.488Z,1.90
2024-01-06T05:30:39.035Z,1.90
2024-01-06T05:33:28.075Z,1.70
2024-01-06T05:36:17.029Z,1.73
2024-01-06T05:39:06.032Z,2.00
2024-01-06T05:41:55.007Z,1.77
2024-01-06T05:44:43.855Z,1.77
2024-01-06T05:47:34.177Z,1.50
2024-01-06T05:50:23.101Z,1.87
2024-01-06T05:53:12.017Z,1.90
2024-01-06T05:56:00.864Z,1.80
2024-01-06T05:58:49.801Z,1.60
2024-01-06T06:01:38.749Z,1.40
2024-01-06T06:04:29.242Z,1.60
2024-01-06T06:07:18.106Z,1.70
2024-01-06T06:10:07.562Z,2.00
2024-01-06T06:12:56.425Z,2.03
2024-01-06T06:15:45.297Z,1.90
2024-01-06T06:18:34.692Z,1.80
2024-01-06T06:21:25.149Z,2.00
2024-01-06T06:24:14.740Z,2.10
2024-01-06T06:27:03.602Z,2.00
2024-01-06T06:29:52.624Z,2.40
2024-01-06T06:32:41.565Z,2.33
2024-01-06T06:35:30.474Z,2.50
2024-01-06T06:38:21.957Z,2.30
2024-01-06T06:41:10.782Z,2.47
2024-01-06T06:44:01.115Z,2.50
2024-01-06T06:46:50.093Z,2.43
2024-01-06T06:49:38.980Z,2.47
2024-01-06T06:52:27.827Z,2.80
2024-01-06T06:55:18.273Z,2.70
2024-01-06T06:58:07.437Z,2.67
2024-01-06T07:00:56.419Z,2.90
2024-01-06T07:03:45.611Z,2.83
2024-01-06T07:06:34.649Z,2.73
2024-01-06T07:09:25.942Z,2.70
2024-01-06T07:12:16.260Z,2.93
2024-01-06T07:15:07.714Z,2.57
2024-01-06T07:17:57.165Z,2.37
2024-01-06T07:20:46.018Z,2.17
2024-01-06T07:23:35.091Z,2.93
2024-01-06T07:26:23.967Z,2.73
2024-01-06T07:29:14.288Z,2.95
2024-01-06T07:32:03.025Z,3.10
2024-01-06T07:34:51.936Z,3.20
2024-01-06T07:37:40.795Z,3.70
2024-01-06T07:40:29.724Z,3.90
2024-01-06T07:43:18.656Z,4.40
2024-01-06T07:46:10.677Z,3.90
2024-01-06T07:48:59.678Z,4.77
2024-01-06T07:51:48.757Z,4.37
2024-01-06T07:54:37.619Z,4.13
2024-01-06T07:57:27.044Z,4.17
2024-01-06T08:00:17.486Z,4.37
2024-01-06T08:03:07.909Z,4.17
2024-01-06T08:05:57.719Z,4.90
2024-01-06T08:08:47.052Z,4.60
2024-01-06T08:11:36.002Z,4.37
2024-01-06T08:14:24.878Z,4.77
2024-01-06T08:17:16.382Z,4.20
2024-01-06T08:20:08.412Z,4.53
2024-01-06T08:22:57.372Z,4.60
2024-01-06T08:25:46.967Z,4.80
2024-01-06T08:28:35.824Z,5.43
2024-01-06T08:31:24.736Z,5.20
2024-01-06T08:34:13.730Z,5.40
2024-01-06T08:37:05.203Z,4.57
2024-01-06T08:39:54.311Z,6.20
2024-01-06T08:42:45.051Z,4.40
2024-01-06T08:45:33.974Z,4.60
2024-01-06T08:48:23.774Z,4.87
2024-01-06T08:51:12.782Z,4.57
2024-01-06T08:54:04.634Z,4.70
2024-01-06T08:56:53.537Z,4.20
2024-01-06T08:59:42.447Z,4.30
2024-01-06T09:02:31.241Z,4.30
2024-01-06T09:05:20.224Z,4.23
2024-01-06T09:08:09.394Z,4.30
2024-01-06T09:10:59.826Z,4.60
2024-01-06T09:13:48.634Z,4.53
2024-01-06T09:16:37.866Z,4.03
2024-01-06T09:19:29.325Z,4.40
2024-01-06T09:22:18.372Z,4.00
2024-01-06T09:25:07.829Z,4.10
2024-01-06T09:27:58.130Z,4.00
2024-01-06T09:30:47.295Z,4.00
2024-01-06T09:33:36.408Z,4.03
2024-01-06T09:36:25.295Z,3.87
2024-01-06T09:39:14.165Z,3.70
2024-01-06T09:42:03.335Z,3.50
2024-01-06T09:44:53.761Z,3.30
2024-01-06T09:47:43.830Z,3.00
2024-01-06T09:50:33.034Z,3.57
2024-01-06T09:53:21.806Z,3.27
2024-01-06T09:56:10.667Z,2.87
2024-01-06T09:58:59.729Z,3.20
2024-01-06T10:01:50.793Z,2.53
2024-01-06T10:04:39.864Z,2.97
2024-01-06T10:07:29.220Z,3.47
2024-01-06T10:10:18.307Z,3.40
2024-01-06T10:13:07.467Z,3.10
2024-01-06T10:15:56.962Z,3.10
2024-01-06T10:18:51.229Z,3.23
2024-01-06T10:21:43.004Z,2.80
2024-01-06T10:24:33.034Z,2.70
2024-01-06T10:27:21.953Z,3.03
2024-01-06T10:30:11.558Z,3.20
2024-01-06T10:33:00.653Z,3.10
2024-01-06T10:35:50.893Z,3.30
2024-01-06T10:38:39.759Z,3.53
2024-01-06T10:41:29.425Z,3.43
2024-01-06T10:44:18.524Z,3.33
2024-01-06T10:47:07.760Z,3.47
2024-01-06T10:50:01.697Z,2.87
2024-01-06T10:52:53.667Z,3.37
2024-01-06T10:55:43.287Z,3.17
2024-01-06T10:58:32.203Z,3.07
2024-01-06T11:01:25.922Z,3.10
2024-01-06T11:04:17.385Z,3.00
2024-01-06T11:07:06.831Z,3.23
2024-01-06T11:10:00.674Z,3.33
2024-01-06T11:13:08.618Z,3.23
2024-01-06T11:15:57.746Z,2.87
2024-01-06T11:18:47.298Z,2.63
2024-01-06T11:21:36.762Z,3.27
2024-01-06T11:24:27.940Z,3.30
2024-01-06T11:27:23.014Z,2.57
2024-01-06T11:30:21.667Z,2.80
2024-01-06T11:33:11.760Z,2.57
2024-01-06T11:36:04.153Z,3.03
2024-01-06T11:38:54.272Z,2.93
2024-01-06T11:41:51.444Z,3.03
2024-01-06T11:44:41.869Z,2.57
2024-01-06T11:47:32.236Z,2.80
2024-01-06T11:50:21.340Z,2.80
2024-01-06T11:53:11.227Z,3.27
2024-01-06T11:56:01.248Z,3.23
2024-01-06T11:58:50.169Z,3.03
2024-01-06T12:01:41.289Z,2.60
2024-01-06T12:04:30.378Z,3.23
2024-01-06T12:07:20.879Z,2.50
2024-01-06T12:10:10.044Z,2.23
2024-01-06T12:13:03.095Z,2.23
2024-01-06T12:15:52.752Z,2.63
2024-01-06T12:18:43.339Z,2.43
2024-01-06T12:21:32.895Z,2.40
2024-01-06T12:24:22.617Z,2.50
2024-01-06T12:27:12.281Z,2.20
2024-01-06T12:30:01.715Z,2.50
2024-01-06T12:32:51.482Z,2.23
2024-01-06T12:35:42.359Z,2.30
2024-01-06T12:38:32.466Z,2.40
2024-01-06T12:41:21.323Z,2.53
2024-01-06T12:44:10.578Z,3.10
2024-01-06T12:46:59.456Z,2.97
2024-01-06T12:49:48.495Z,2.90
2024-01-06T12:52:40.351Z,2.97
2024-01-06T12:55:29.682Z,2.80
2024-01-06T12:58:18.596Z,2.73
2024-01-06T13:01:08.247Z,2.70
2024-01-06T13:04:00.407Z,3.43
2024-01-06T13:06:50.301Z,2.70
2024-01-06T13:09:40.687Z,2.00
2024-01-06T13:12:30.508Z,2.20
2024-01-06T13:15:19.662Z,1.83
2024-01-06T13:18:08.998Z,2.13
2024-01-06T13:20:57.912Z,2.30
2024-01-06T13:23:47.110Z,2.47
2024-01-06T13:26:37.429Z,2.23
2024-01-06T13:29:26.439Z,2.47
2024-01-06T13:32:16.425Z,2.27
2024-01-06T13:35:06.971Z,2.10
2024-01-06T13:37:57.043Z,1.67
2024-01-06T13:40:45.926Z,1.77
2024-01-06T13:43:36.183Z,1.80
2024-01-06T13:46:26.058Z,1.50
2024-01-06T13:49:15.132Z,1.70
2024-01-06T13:52:04.308Z,1.70
2024-01-06T13:54:53.402Z,1.77
2024-01-06T13:57:43.959Z,1.83
2024-01-06T14:00:34.297Z,2.00
2024-01-06T14:03:23.661Z,2.13
2024-01-06T14:06:13.081Z,1.80
2024-01-06T14:09:02.190Z,1.40
2024-01-06T14:11:51.057Z,1.90
2024-01-06T14:14:39.950Z,1.90
2024-01-06T14:17:30.334Z,1.70
2024-01-06T14:20:19.679Z,1.60
2024-01-06T14:23:11.311Z,1.70
2024-01-06T14:26:01.817Z,1.90
2024-01-06T14:28:50.857Z,1.90
2024-01-06T14:31:39.861Z,1.80
2024-01-06T14:34:33.031Z,1.83
2024-01-06T14:37:22.537Z,1.70
2024-01-06T14:40:18.022Z,1.80
2024-01-06T14:43:08.004Z,2.00
2024-01-06T14:45:57.202Z,2.03
2024-01-06T14:48:47.448Z,2.10
2024-01-06T14:51:37.678Z,2.10
2024-01-06T14:54:26.514Z,1.90
2024-01-06T14:57:18.462Z,1.80
2024-01-06T15:00:08.100Z,1.93
2024-01-06T15:02:56.942Z,2.20
2024-01-06T15:05:45.904Z,2.27
2024-01-06T15:08:36.134Z,2.13
2024-01-06T15:11:25.072Z,2.00
2024-01-06T15:14:14.012Z,2.00
2024-01-06T15:17:02.904Z,2.43
2024-01-06T15:19:52.027Z,2.00
2024-01-06T15:22:41.579Z,2.03
2024-01-06T15:25:32.004Z,2.70
2024-01-06T15:28:20.863Z,2.00
2024-01-06T15:31:09.789Z,2.00
2024-01-06T15:33:58.891Z,2.10
2024-01-06T15:36:48.780Z,2.60
2024-01-06T15:39:37.804Z,2.40
2024-01-06T15:42:28.194Z,2.60
2024-01-06T15:45:17.143Z,2.80
2024-01-06T15:48:06.471Z,2.77
2024-01-06T15:50:55.459Z,3.80
2024-01-06T15:53:44.293Z,3.70
2024-01-06T15:56:33.460Z,3.33
2024-01-06T15:59:23.839Z,3.40
2024-01-06T16:02:12.753Z,3.50
2024-01-06T16:05:01.704Z,3.50
2024-01-06T16:07:50.566Z,3.70
2024-01-06T16:10:39.491Z,4.03
2024-01-06T16:13:28.519Z,4.23
2024-01-06T16:16:18.733Z,4.53
2024-01-06T16:19:07.686Z,4.80
2024-01-06T16:21:59.714Z,5.00
2024-01-06T16:24:56.309Z,4.67
2024-01-06T16:27:45.272Z,4.70
2024-01-06T16:30:34.439Z,5.17
2024-01-06T16:33:24.996Z,4.73
2024-01-06T16:36:13.951Z,5.00
2024-01-06T16:39:03.294Z,5.03
2024-01-06T16:41:52.174Z,4.93
2024-01-06T16:44:40.910Z,4.90
2024-01-06T16:47:29.934Z,5.37
2024-01-06T16:50:20.372Z,6.33
2024-01-06T16:53:09.332Z,5.77
2024-01-06T16:55:58.205Z,5.63
2024-01-06T16:58:47.108Z,5.63
2024-01-06T17:01:35.972Z,5.60
2024-01-06T17:04:25.003Z,6.60
2024-01-06T17:07:15.305Z,5.50
2024-01-06T17:10:04.452Z,5.83
2024-01-06T17:12:55.579Z,5.50
2024-01-06T17:15:44.509Z,4.97
2024-01-06T17:18:33.797Z,4.80
2024-01-06T17:21:22.919Z,6.00
2024-01-06T17:24:13.215Z,5.47
2024-01-06T17:27:03.109Z,5.80
2024-01-06T17:29:52.299Z,6.07
2024-01-06T17:32:41.198Z,6.13
2024-01-06T17:35:30.093Z,5.97
2024-01-06T17:38:18.980Z,5.60
2024-01-06T17:41:09.174Z,7.20
2024-01-06T17:43:58.716Z,5.83
2024-01-06T17:46:47.529Z,7.27
2024-01-06T17:49:36.531Z,6.43
2024-01-06T17:52:28.018Z,7.47
2024-01-06T17:55:17.001Z,7.47
2024-01-06T17:58:07.375Z,8.07
2024-01-06T18:00:56.331Z,9.63
2024-01-06T18:03:47.796Z,8.67
2024-01-06T18:06:36.844Z,9.27
2024-01-06T18:09:25.957Z,8.60
2024-01-06T18:12:14.981Z,10.00
2024-01-06T18:15:05.711Z,9.43
2024-01-06T18:17:54.653Z,9.57
2024-01-06T18:20:47.904Z,8.67
2024-01-06T18:23:38.468Z,9.20
2024-01-06T18:26:27.725Z,9.07
2024-01-06T18:29:19.276Z,9.10
2024-01-06T18:32:12.681Z,10.13
2024-01-06T18:35:01.728Z,9.80
2024-01-06T18:37:50.582Z,10.53
2024-01-06T18:40:39.489Z,9.53
2024-01-06T18:43:31.214Z,9.60
2024-01-06T18:46:20.124Z,10.37
2024-01-06T18:49:10.519Z,10.07
2024-01-06T18:52:02.771Z,10.30
2024-01-06T18:54:51.803Z,10.97
2024-01-06T18:57:40.748Z,11.10
2024-01-06T19:00:29.666Z,11.17
2024-01-06T19:03:18.731Z,10.83
2024-01-06T19:06:09.118Z,10.90
2024-01-06T19:08:57.942Z,13.80
2024-01-06T19:11:46.839Z,14.20
2024-01-06T19:14:37.078Z,14.90
2024-01-06T19:17:26.219Z,10.50
2024-01-06T19:20:15.096Z,10.97
2024-01-06T19:23:09.577Z,11.83
2024-01-06T19:25:59.122Z,12.90
2024-01-06T19:28:48.009Z,12.37
2024-01-06T19:31:37.433Z,12.30
2024-01-06T19:34:26.471Z,12.97
2024-01-06T19:37:15.410Z,13.13
2024-01-06T19:40:06.961Z,14.67
2024-01-06T19:42:56.381Z,15.37
2024-01-06T19:45:45.370Z,15.60
2024-01-06T19:48:34.349Z,15.83
2024-01-06T19:51:23.484Z,14.43
2024-01-06T19:54:13.471Z,14.60
2024-01-06T19:57:05.294Z,14.90
2024-01-06T19:59:54.179Z,15.77
2024-01-06T20:02:46.153Z,14.43
2024-01-06T20:05:34.992Z,15.50
2024-01-06T20:08:23.830Z,14.07
2024-01-06T20:11:12.628Z,16.63
2024-01-06T20:14:02.808Z,15.63
2024-01-06T20:16:53.188Z,16.10
2024-01-06T20:19:42.269Z,14.83
2024-01-06T20:22:32.494Z,14.33
2024-01-06T20:25:21.456Z,15.33
2024-01-06T20:28:10.543Z,13.90
2024-01-06T20:31:04.311Z,15.23
2024-01-06T20:33:54.125Z,14.33
2024-01-06T20:36:44.937Z,13.03
2024-01-06T20:39:33.946Z,14.07
2024-01-06T20:42:22.892Z,13.77
2024-01-06T20:45:14.243Z,14.07
2024-01-06T20:48:10.477Z,12.90
2024-01-06T20:51:02.021Z,12.90
2024-01-06T20:53:52.753Z,14.10
2024-01-06T20:56:41.859Z,13.63
2024-01-06T20:59:31.745Z,12.87
2024-01-06T21:02:21.940Z,13.40
2024-01-06T21:05:12.348Z,12.50
2024-01-06T21:08:01.225Z,12.90
2024-01-06T21:10:50.077Z,13.00
2024-01-06T21:13:39.001Z,12.77
2024-01-06T21:16:27.944Z,13.67
2024-01-06T21:19:16.903Z,14.30
2024-01-06T21:22:07.338Z,13.80
2024-01-06T21:24:56.329Z,13.13
2024-01-06T21:27:45.413Z,12.23
2024-01-06T21:30:34.434Z,11.27
2024-01-06T21:33:23.434Z,13.37
2024-01-06T21:36:12.664Z,13.43
2024-01-06T21:39:02.817Z,13.23
2024-01-06T21:41:51.632Z,12.20
2024-01-06T21:44:40.499Z,12.50
2024-01-06T21:47:29.392Z,11.67
2024-01-06T21:50:25.398Z,12.10
2024-01-06T21:53:14.372Z,11.43
2024-01-06T21:56:04.969Z,12.40
2024-01-06T21:58:54.543Z,11.80
2024-01-06T22:01:44.121Z,11.90
2024-01-06T22:04:33.170Z,12.43
2024-01-06T22:07:22.095Z,11.43
2024-01-06T22:10:11.441Z,12.87
2024-01-06T22:13:01.803Z,11.70
2024-01-06T22:15:50.741Z,10.73
2024-01-06T22:18:39.844Z,11.50
2024-01-06T22:21:30.561Z,10.93
2024-01-06T22:24:19.586Z,11.13
2024-01-06T22:27:08.504Z,10.80
2024-01-06T22:29:58.728Z,10.53
2024-01-06T22:32:48.770Z,10.10
2024-01-06T22:35:37.890Z,10.03
2024-01-06T22:38:27.688Z,10.10
2024-01-06T22:41:17.772Z,9.83
2024-01-06T22:44:07.234Z,10.27
2024-01-06T22:46:57.425Z,9.47
2024-01-06T22:49:46.309Z,9.67
2024-01-06T22:52:35.528Z,9.70
2024-01-06T22:55:24.457Z,9.30
2024-01-06T22:58:13.429Z,9.13
2024-01-06T23:01:02.426Z,8.17
2024-01-06T23:03:52.721Z,8.37
2024-01-06T23:06:41.810Z,9.00
2024-01-06T23:09:30.766Z,9.60
2024-01-06T23:12:19.594Z,9.50
2024-01-06T23:15:08.884Z,8.83
2024-01-06T23:17:57.726Z,8.70
2024-01-06T23:20:47.968Z,9.50
2024-01-06T23:23:36.949Z,8.37
2024-01-06T23:26:25.755Z,9.10
2024-01-06T23:29:14.545Z,8.27
2024-01-06T23:32:03.947Z,9.10
2024-01-06T23:34:53.205Z,8.87
2024-01-06T23:37:44.009Z,8.97
2024-01-06T23:40:32.960Z,8.83
2024-01-06T23:43:21.866Z,8.33
2024-01-06T23:46:10.728Z,8.13
2024-01-06T23:48:59.755Z,8.17
2024-01-06T23:51:48.796Z,8.33
2024-01-06T23:54:42.029Z,8.80
2024-01-06T23:57:31.027Z,9.00
